Time;durP1;ratioP1;P1;durP2;ratioP2;P2;SDS_P1;SDS_P2;PMS_P1;PMS_P2;Temp;Humidity;BMP_temperature;BMP_pressure;BME280_temperature;BME280_humidity;BME280_pressure;Samples;Min_cycle;Max_cycle;Signal;HPM_P1;HPM_P2
2021/07/05 00:01:03;;;;;;;28.35;22.15;;;;;;;;;;4991174;28;20077;-62
2021/07/05 00:03:29;;;;;;;27.48;21.15;;;;;;;;;;4992785;28;20393;-63
2021/07/05 00:05:55;;;;;;;32.08;21.83;;;;;;;;;;4992151;28;20101;-63
2021/07/05 00:08:21;;;;;;;34.72;22.20;;;;;;;;;;4992682;28;20050;-63
2021/07/05 00:10:47;;;;;;;33.53;23.58;;;;;;;;;;4993080;28;20061;-63
2021/07/05 00:13:15;;;;;;;33.10;23.00;;;;;;;;;;4992536;28;20475;-62
2021/07/05 00:15:41;;;;;;;29.42;21.60;;;;;;;;;;4993694;28;20021;-62
2021/07/05 00:18:08;;;;;;;32.95;23.25;;;;;;;;;;4993200;28;20382;-63
2021/07/05 00:20:36;;;;;;;31.88;22.05;;;;;;;;;;4994067;28;20049;-63
2021/07/05 00:23:02;;;;;;;32.05;22.35;;;;;;;;;;4993957;28;20081;-61
2021/07/05 00:25:28;;;;;;;32.80;23.25;;;;;;;;;;4993324;28;20030;-63
2021/07/05 00:27:55;;;;;;;29.17;22.08;;;;;;;;;;4993997;28;20030;-63
2021/07/05 00:30:21;;;;;;;29.33;21.95;;;;;;;;;;4993369;28;20100;-62
2021/07/05 00:32:48;;;;;;;30.10;21.73;;;;;;;;;;4992993;28;20033;-64
2021/07/05 00:35:14;;;;;;;34.75;24.08;;;;;;;;;;4993336;28;20065;-63
2021/07/05 00:37:40;;;;;;;30.60;23.30;;;;;;;;;;4992592;28;20390;-63
2021/07/05 00:40:07;;;;;;;31.92;23.08;;;;;;;;;;4993881;28;20562;-63
2021/07/05 00:42:35;;;;;;;29.90;21.67;;;;;;;;;;4992618;28;20030;-63
2021/07/05 00:45:01;;;;;;;30.33;23.35;;;;;;;;;;4993020;28;20030;-62
2021/07/05 00:47:27;;;;;;;32.35;23.45;;;;;;;;;;4992058;28;20029;-62
2021/07/05 00:49:53;;;;;;;34.15;24.00;;;;;;;;;;4992372;28;20022;-59
2021/07/05 00:52:19;;;;;;;30.92;22.45;;;;;;;;;;4993309;28;20383;-62
2021/07/05 00:54:45;;;;;;;29.48;22.10;;;;;;;;;;4991433;28;20130;-62
2021/07/05 00:57:20;;;;;;;31.02;22.17;;;;;;;;;;4993532;28;20101;-62
2021/07/05 00:59:50;;;;;;;30.73;21.92;;;;;;;;;;4993288;28;20471;-59
2021/07/05 01:02:17;;;;;;;32.60;22.15;;;;;;;;;;4993146;28;20069;-63
2021/07/05 01:04:43;;;;;;;30.35;22.77;;;;;;;;;;4992042;28;20490;-59
2021/07/05 01:07:09;;;;;;;32.00;22.40;;;;;;;;;;4991447;28;20026;-61
2021/07/05 01:09:35;;;;;;;30.77;22.65;;;;;;;;;;4991550;28;20502;-61
2021/07/05 01:12:01;;;;;;;32.08;23.60;;;;;;;;;;4991459;28;20030;-59
2021/07/05 01:14:28;;;;;;;35.65;22.98;;;;;;;;;;4991798;28;20053;-62
2021/07/05 01:16:54;;;;;;;34.20;24.15;;;;;;;;;;4992575;28;20097;-61
2021/07/05 01:19:20;;;;;;;31.50;22.63;;;;;;;;;;4992479;28;20504;-62
2021/07/05 01:21:46;;;;;;;32.33;23.90;;;;;;;;;;4991206;28;20033;-61
2021/07/05 01:24:12;;;;;;;34.72;22.50;;;;;;;;;;4991472;28;20479;-61
2021/07/05 01:26:38;;;;;;;30.42;22.67;;;;;;;;;;4991865;28;20398;-61
2021/07/05 01:29:04;;;;;;;33.63;23.02;;;;;;;;;;4993220;28;20143;-61
2021/07/05 01:31:30;;;;;;;34.13;23.30;;;;;;;;;;4991696;28;20022;-61
2021/07/05 01:33:56;;;;;;;35.28;22.98;;;;;;;;;;4992760;28;20030;-61
2021/07/05 01:36:22;;;;;;;30.55;22.15;;;;;;;;;;4990991;28;20038;-63
2021/07/05 01:38:52;;;;;;;31.23;22.52;;;;;;;;;;4992990;28;20022;-63
2021/07/05 01:41:21;;;;;;;31.40;22.73;;;;;;;;;;4992927;28;20030;-63
2021/07/05 01:43:48;;;;;;;49.13;42.33;;;;;;;;;;4991178;28;20546;-62
2021/07/05 01:46:14;;;;;;;37.53;30.60;;;;;;;;;;4990467;28;20093;-62
2021/07/05 01:48:40;;;;;;;30.75;22.27;;;;;;;;;;4992722;28;20088;-62
2021/07/05 01:51:06;;;;;;;34.88;25.73;;;;;;;;;;4992765;28;20372;-62
2021/07/05 01:53:32;;;;;;;30.08;22.38;;;;;;;;;;4992326;28;20113;-61
2021/07/05 01:55:58;;;;;;;31.52;24.67;;;;;;;;;;4991982;28;20085;-61
2021/07/05 01:58:24;;;;;;;29.30;22.63;;;;;;;;;;4992548;28;20026;-61
2021/07/05 02:00:50;;;;;;;31.33;22.77;;;;;;;;;;4991332;28;20220;-62
2021/07/05 02:03:17;;;;;;;31.15;23.40;;;;;;;;;;4992655;28;20030;-58
2021/07/05 02:05:44;;;;;;;29.58;21.33;;;;;;;;;;4992445;28;20035;-60
2021/07/05 02:08:12;;;;;;;29.05;20.38;;;;;;;;;;4991630;28;20093;-62
2021/07/05 02:10:39;;;;;;;35.80;20.85;;;;;;;;;;4992966;28;20029;-61
2021/07/05 02:13:12;;;;;;;27.10;18.77;;;;;;;;;;4992488;28;20041;-62
2021/07/05 02:15:39;;;;;;;27.45;19.63;;;;;;;;;;4991935;28;20019;-57
2021/07/05 02:18:06;;;;;;;28.17;18.73;;;;;;;;;;4992386;28;20019;-61
2021/07/05 02:20:32;;;;;;;28.08;20.42;;;;;;;;;;4992529;28;20022;-61
2021/07/05 02:23:00;;;;;;;26.83;18.88;;;;;;;;;;4990945;28;20030;-60
2021/07/05 02:25:27;;;;;;;26.25;18.35;;;;;;;;;;4991695;28;20030;-63
2021/07/05 02:27:54;;;;;;;27.88;19.42;;;;;;;;;;4992347;28;20101;-60
2021/07/05 02:30:21;;;;;;;26.13;19.23;;;;;;;;;;4991994;28;20045;-61
2021/07/05 02:32:48;;;;;;;42.65;19.30;;;;;;;;;;4990908;28;20038;-61
2021/07/05 02:35:15;;;;;;;24.15;17.88;;;;;;;;;;4991509;28;20494;-62
2021/07/05 02:37:42;;;;;;;25.17;18.25;;;;;;;;;;4992176;28;20030;-62
2021/07/05 02:40:09;;;;;;;27.05;18.55;;;;;;;;;;4992248;28;20072;-63
2021/07/05 02:42:36;;;;;;;28.88;19.75;;;;;;;;;;4990726;28;20050;-61
2021/07/05 02:45:04;;;;;;;25.13;18.05;;;;;;;;;;4990391;28;20034;-61
2021/07/05 02:47:30;;;;;;;29.08;18.40;;;;;;;;;;4991013;28;20044;-61
2021/07/05 02:49:56;;;;;;;27.23;19.42;;;;;;;;;;4992121;28;20034;-62
2021/07/05 02:52:22;;;;;;;26.90;17.58;;;;;;;;;;4991635;28;20027;-62
2021/07/05 02:54:48;;;;;;;25.88;18.67;;;;;;;;;;4990195;28;20129;-61
2021/07/05 02:57:29;;;;;;;28.73;18.55;;;;;;;;;;4994674;28;20022;-60
2021/07/05 03:00:02;;;;;;;28.65;19.52;;;;;;;;;;4995758;28;20478;-60
2021/07/05 03:02:32;;;;;;;25.77;18.08;;;;;;;;;;4995389;28;20670;-61
2021/07/05 03:05:01;;;;;;;30.98;19.13;;;;;;;;;;4995073;28;20033;-62
2021/07/05 03:07:27;;;;;;;27.27;18.73;;;;;;;;;;4994407;28;20442;-62
2021/07/05 03:09:54;;;;;;;27.63;18.90;;;;;;;;;;4995501;28;20034;-62
2021/07/05 03:12:20;;;;;;;26.85;18.02;;;;;;;;;;4995293;28;20022;-61
2021/07/05 03:14:46;;;;;;;29.90;20.30;;;;;;;;;;4994761;28;20522;-61
2021/07/05 03:17:13;;;;;;;28.70;18.67;;;;;;;;;;4995420;28;20475;-62
2021/07/05 03:19:39;;;;;;;25.33;18.27;;;;;;;;;;4995372;28;20030;-62
2021/07/05 03:22:05;;;;;;;28.48;19.05;;;;;;;;;;4993948;28;20121;-62
2021/07/05 03:24:31;;;;;;;25.83;18.25;;;;;;;;;;4994369;28;20096;-60
2021/07/05 03:26:57;;;;;;;26.55;17.92;;;;;;;;;;4993834;28;20034;-59
2021/07/05 03:29:23;;;;;;;24.75;16.95;;;;;;;;;;4994078;28;20080;-61
2021/07/05 03:31:49;;;;;;;24.33;16.85;;;;;;;;;;4995000;28;20027;-63
2021/07/05 03:34:15;;;;;;;23.70;15.70;;;;;;;;;;4993111;28;20025;-62
2021/07/05 03:36:41;;;;;;;23.75;16.02;;;;;;;;;;4994944;28;20050;-61
2021/07/05 03:39:07;;;;;;;23.83;16.73;;;;;;;;;;4993606;28;20023;-62
2021/07/05 03:41:33;;;;;;;22.00;15.77;;;;;;;;;;4995039;28;20034;-63
2021/07/05 03:43:59;;;;;;;24.15;15.68;;;;;;;;;;4994864;28;20422;-62
2021/07/05 03:46:26;;;;;;;27.85;16.45;;;;;;;;;;4992976;28;20061;-61
2021/07/05 03:48:52;;;;;;;25.73;16.65;;;;;;;;;;4994646;28;20069;-61
2021/07/05 03:51:18;;;;;;;25.55;15.48;;;;;;;;;;4994937;28;20414;-59
2021/07/05 03:53:44;;;;;;;23.15;15.82;;;;;;;;;;4994361;28;20478;-60
2021/07/05 03:56:10;;;;;;;23.92;16.48;;;;;;;;;;4993930;28;20041;-62
2021/07/05 03:58:36;;;;;;;25.40;15.43;;;;;;;;;;4993346;28;20022;-61
2021/07/05 04:01:02;;;;;;;24.08;15.15;;;;;;;;;;4994549;28;20105;-61
2021/07/05 04:03:28;;;;;;;22.33;15.40;;;;;;;;;;4994758;28;20038;-62
2021/07/05 04:05:55;;;;;;;23.35;15.27;;;;;;;;;;4994016;28;20130;-63
2021/07/05 04:08:23;;;;;;;23.33;15.10;;;;;;;;;;4993257;28;20482;-61
2021/07/05 04:10:49;;;;;;;24.42;15.45;;;;;;;;;;4994735;28;20490;-57
2021/07/05 04:13:15;;;;;;;21.63;15.23;;;;;;;;;;4993868;28;20495;-63
2021/07/05 04:15:41;;;;;;;20.15;13.85;;;;;;;;;;4993602;28;20391;-61
2021/07/05 04:18:07;;;;;;;21.95;14.18;;;;;;;;;;4993021;28;20075;-63
2021/07/05 04:20:33;;;;;;;20.75;13.77;;;;;;;;;;4994214;28;20023;-62
2021/07/05 04:23:00;;;;;;;21.73;14.00;;;;;;;;;;4993856;28;20546;-62
2021/07/05 04:25:26;;;;;;;18.90;13.63;;;;;;;;;;4993298;28;20019;-62
2021/07/05 04:27:53;;;;;;;20.90;13.88;;;;;;;;;;4994126;28;20026;-63
2021/07/05 04:30:19;;;;;;;20.63;13.23;;;;;;;;;;4992349;28;20023;-60
2021/07/05 04:32:46;;;;;;;20.95;13.38;;;;;;;;;;4993707;28;20030;-62
2021/07/05 04:35:14;;;;;;;25.77;13.52;;;;;;;;;;4993431;28;20026;-61
2021/07/05 04:37:41;;;;;;;19.17;12.68;;;;;;;;;;4992240;28;20033;-62
2021/07/05 04:40:11;;;;;;;21.25;13.82;;;;;;;;;;4993353;28;20088;-62
2021/07/05 04:42:38;;;;;;;20.48;13.35;;;;;;;;;;4993328;28;20034;-62
2021/07/05 04:45:04;;;;;;;20.23;12.75;;;;;;;;;;4992859;28;20037;-61
2021/07/05 04:47:30;;;;;;;18.02;12.52;;;;;;;;;;4993299;28;20034;-60
2021/07/05 04:49:56;;;;;;;19.38;12.57;;;;;;;;;;4992978;28;20109;-60
2021/07/05 04:52:22;;;;;;;18.88;12.10;;;;;;;;;;4990984;28;20048;-62
2021/07/05 04:54:48;;;;;;;20.67;12.55;;;;;;;;;;4990688;28;20033;-62
2021/07/05 04:57:14;;;;;;;19.10;12.63;;;;;;;;;;4992952;28;20441;-60
2021/07/05 04:59:40;;;;;;;20.70;12.13;;;;;;;;;;4993344;28;20478;-61
2021/07/05 05:02:06;;;;;;;18.67;11.27;;;;;;;;;;4992863;28;20033;-61
2021/07/05 05:04:32;;;;;;;20.83;12.35;;;;;;;;;;4991994;28;20097;-60
2021/07/05 05:06:58;;;;;;;25.75;12.07;;;;;;;;;;4991780;28;20026;-55
2021/07/05 05:09:24;;;;;;;18.40;11.52;;;;;;;;;;4992046;28;20522;-60
2021/07/05 05:11:51;;;;;;;18.45;11.27;;;;;;;;;;4992708;28;20062;-61
2021/07/05 05:14:17;;;;;;;22.00;11.70;;;;;;;;;;4991800;28;20537;-61
2021/07/05 05:16:43;;;;;;;18.02;12.13;;;;;;;;;;4992686;28;20402;-60
2021/07/05 05:19:09;;;;;;;24.95;12.38;;;;;;;;;;4991153;28;20101;-61
2021/07/05 05:21:35;;;;;;;19.38;12.25;;;;;;;;;;4992555;28;20443;-62
2021/07/05 05:24:02;;;;;;;18.70;11.15;;;;;;;;;;4992406;28;20098;-60
2021/07/05 05:26:28;;;;;;;18.65;10.77;;;;;;;;;;4991724;28;20031;-61
2021/07/05 05:28:54;;;;;;;21.80;11.95;;;;;;;;;;4990582;28;20129;-61
2021/07/05 05:31:20;;;;;;;20.45;10.95;;;;;;;;;;4991951;28;20034;-60
2021/07/05 05:33:46;;;;;;;19.20;11.30;;;;;;;;;;4991733;28;20034;-64
2021/07/05 05:36:12;;;;;;;21.50;11.48;;;;;;;;;;4991420;28;20105;-60
2021/07/05 05:38:40;;;;;;;19.63;11.60;;;;;;;;;;4992009;28;20057;-60
2021/07/05 05:41:06;;;;;;;21.83;11.50;;;;;;;;;;4992605;28;20025;-61
2021/07/05 05:43:32;;;;;;;20.42;12.02;;;;;;;;;;4991783;28;20145;-60
2021/07/05 05:46:01;;;;;;;18.05;10.63;;;;;;;;;;4990549;28;20133;-59
2021/07/05 05:48:28;;;;;;;21.58;11.98;;;;;;;;;;4991649;28;20042;-54
2021/07/05 05:50:54;;;;;;;20.50;11.38;;;;;;;;;;4990143;28;20117;-60
2021/07/05 05:53:20;;;;;;;18.42;11.98;;;;;;;;;;4991869;28;20222;-60
2021/07/05 05:55:47;;;;;;;18.70;11.38;;;;;;;;;;4989984;28;20026;-59
2021/07/05 05:58:14;;;;;;;19.27;11.60;;;;;;;;;;4996039;28;20027;-59
2021/07/05 06:00:40;;;;;;;19.75;11.48;;;;;;;;;;4992247;28;20445;-60
2021/07/05 06:03:06;;;;;;;21.70;11.10;;;;;;;;;;4991982;28;20027;-60
2021/07/05 06:05:32;;;;;;;22.25;12.35;;;;;;;;;;5003240;28;20076;-60
2021/07/05 06:07:58;;;;;;;21.00;12.32;;;;;;;;;;5010474;28;20036;-60
2021/07/05 06:10:24;;;;;;;20.40;11.43;;;;;;;;;;5009918;28;20044;-60
2021/07/05 06:12:51;;;;;;;20.65;12.50;;;;;;;;;;5008752;28;20401;-60
2021/07/05 06:15:19;;;;;;;21.08;12.90;;;;;;;;;;4991124;28;20018;-60
2021/07/05 06:17:45;;;;;;;23.52;15.50;;;;;;;;;;4992332;28;20372;-63
2021/07/05 06:20:12;;;;;;;24.92;19.75;;;;;;;;;;4974401;28;20035;-61
2021/07/05 06:22:57;;;;;;;24.90;19.92;;;;;;;;;;4974319;28;20093;-62
2021/07/05 06:25:24;;;;;;;28.00;25.00;;;;;;;;;;4973726;28;20096;-62
2021/07/05 06:27:50;;;;;;;29.15;26.00;;;;;;;;;;4992187;28;20057;-60
2021/07/05 06:30:16;;;;;;;31.25;28.13;;;;;;;;;;4996548;28;20363;-58
2021/07/05 06:32:42;;;;;;;31.90;28.70;;;;;;;;;;5013403;28;20113;-59
2021/07/05 06:35:09;;;;;;;32.40;29.15;;;;;;;;;;5013484;28;20022;-60
2021/07/05 06:37:38;;;;;;;31.73;27.02;;;;;;;;;;5015212;28;20076;-61
2021/07/05 06:40:06;;;;;;;29.63;26.52;;;;;;;;;;5015085;28;20021;-60
2021/07/05 06:42:32;;;;;;;31.48;28.17;;;;;;;;;;5013899;28;20034;-60
2021/07/05 06:44:58;;;;;;;31.70;28.50;;;;;;;;;;5014723;28;20402;-59
2021/07/05 06:47:24;;;;;;;31.85;28.67;;;;;;;;;;5014999;28;20037;-58
2021/07/05 06:49:50;;;;;;;30.55;27.45;;;;;;;;;;5013802;28;20033;-61
2021/07/05 06:52:16;;;;;;;30.30;27.30;;;;;;;;;;5014225;28;20022;-58
2021/07/05 06:54:42;;;;;;;30.98;27.77;;;;;;;;;;5014321;28;20058;-60
2021/07/05 06:57:28;;;;;;;29.85;26.65;;;;;;;;;;5008589;28;20085;-59
2021/07/05 06:59:54;;;;;;;28.50;25.75;;;;;;;;;;4975888;28;20117;-59
2021/07/05 07:02:20;;;;;;;26.50;23.80;;;;;;;;;;4975951;28;20035;-59
2021/07/05 07:04:47;;;;;;;27.83;25.02;;;;;;;;;;4975206;28;20047;-57
2021/07/05 07:07:13;;;;;;;26.23;23.52;;;;;;;;;;4975810;28;20102;-59
2021/07/05 07:09:39;;;;;;;26.98;24.17;;;;;;;;;;4975797;28;20031;-60
2021/07/05 07:12:05;;;;;;;25.40;22.88;;;;;;;;;;4956996;28;20398;-55
2021/07/05 07:14:31;;;;;;;23.90;21.60;;;;;;;;;;4957711;28;20019;-58
2021/07/05 07:17:05;;;;;;;24.70;21.92;;;;;;;;;;4975411;28;20372;-59
2021/07/05 07:19:31;;;;;;;25.23;22.73;;;;;;;;;;4975542;28;20102;-59
2021/07/05 07:22:02;;;;;;;25.33;22.48;;;;;;;;;;4975259;28;20465;-58
2021/07/05 07:24:28;;;;;;;25.10;22.23;;;;;;;;;;4974589;28;20849;-61
2021/07/05 07:26:54;;;;;;;24.33;21.88;;;;;;;;;;4976610;28;20030;-59
2021/07/05 07:29:20;;;;;;;23.98;21.55;;;;;;;;;;4975792;28;20027;-54
2021/07/05 07:31:46;;;;;;;24.08;21.50;;;;;;;;;;4989951;28;20132;-57
2021/07/05 07:34:12;;;;;;;23.65;21.38;;;;;;;;;;5013971;28;20026;-55
2021/07/05 07:36:40;;;;;;;24.13;21.67;;;;;;;;;;5014170;28;20026;-59
2021/07/05 07:39:09;;;;;;;23.52;21.20;;;;;;;;;;5013286;28;20101;-53
2021/07/05 07:41:35;;;;;;;23.23;20.88;;;;;;;;;;5014383;28;20489;-59
2021/07/05 07:44:02;;;;;;;23.75;21.38;;;;;;;;;;5014111;28;20030;-63
2021/07/05 07:46:28;;;;;;;24.85;22.20;;;;;;;;;;5013969;28;20102;-64
2021/07/05 07:48:54;;;;;;;23.50;21.20;;;;;;;;;;5014328;28;20070;-64
2021/07/05 07:51:20;;;;;;;22.73;20.50;;;;;;;;;;5013931;28;20479;-64
2021/07/05 07:53:47;;;;;;;22.30;20.10;;;;;;;;;;5015126;28;20030;-64
2021/07/05 07:56:13;;;;;;;22.08;19.80;;;;;;;;;;5013241;28;20553;-65
2021/07/05 07:58:39;;;;;;;22.17;20.08;;;;;;;;;;5001461;28;20050;-65
2021/07/05 08:01:07;;;;;;;22.35;20.08;;;;;;;;;;4974664;28;20047;-65
2021/07/05 08:03:33;;;;;;;22.17;19.98;;;;;;;;;;4974852;28;20030;-64
2021/07/05 08:05:59;;;;;;;22.10;19.83;;;;;;;;;;4974261;28;20035;-65
2021/07/05 08:08:25;;;;;;;21.20;19.02;;;;;;;;;;4958698;28;20050;-64
2021/07/05 08:10:51;;;;;;;22.83;19.90;;;;;;;;;;4974534;28;20495;-64
2021/07/05 08:13:17;;;;;;;21.65;19.33;;;;;;;;;;4956997;28;20023;-64
2021/07/05 08:15:43;;;;;;;21.00;18.90;;;;;;;;;;4956487;28;20023;-64
2021/07/05 08:18:09;;;;;;;20.35;18.25;;;;;;;;;;4974794;28;20475;-66
2021/07/05 08:20:35;;;;;;;21.40;19.20;;;;;;;;;;4974615;28;20062;-66
2021/07/05 08:23:02;;;;;;;19.65;17.17;;;;;;;;;;4974328;28;20070;-66
2021/07/05 08:25:28;;;;;;;19.05;17.10;;;;;;;;;;4973895;28;20483;-64
2021/07/05 08:27:54;;;;;;;19.85;17.75;;;;;;;;;;4956896;28;20035;-66
2021/07/05 08:30:21;;;;;;;19.42;17.33;;;;;;;;;;4974164;28;20530;-65
2021/07/05 08:32:48;;;;;;;18.05;16.15;;;;;;;;;;4974101;28;20023;-65
2021/07/05 08:35:14;;;;;;;19.33;17.23;;;;;;;;;;4973576;28;20025;-66
2021/07/05 08:37:40;;;;;;;17.73;15.82;;;;;;;;;;4952101;28;20110;-66
2021/07/05 08:40:07;;;;;;;19.08;16.48;;;;;;;;;;4974161;28;20458;-66
2021/07/05 08:42:34;;;;;;;17.65;15.30;;;;;;;;;;4978250;28;20034;-66
2021/07/05 08:45:01;;;;;;;17.15;14.60;;;;;;;;;;4992883;28;20037;-67
2021/07/05 08:47:27;;;;;;;18.35;15.48;;;;;;;;;;4976130;28;20371;-66
2021/07/05 08:49:53;;;;;;;18.67;16.67;;;;;;;;;;4993095;28;20467;-67
2021/07/05 08:52:19;;;;;;;18.17;15.40;;;;;;;;;;4975428;28;20038;-67
2021/07/05 08:54:45;;;;;;;17.30;15.38;;;;;;;;;;4974597;28;20026;-66
2021/07/05 08:57:27;;;;;;;17.15;15.25;;;;;;;;;;4975093;28;20489;-68
2021/07/05 08:59:57;;;;;;;17.67;14.60;;;;;;;;;;4975915;28;20022;-67
2021/07/05 09:02:23;;;;;;;17.40;14.65;;;;;;;;;;4993229;28;20441;-67
2021/07/05 09:04:52;;;;;;;18.95;15.25;;;;;;;;;;4640419;28;9999824;-65
2021/07/05 09:07:19;;;;;;;18.58;15.55;;;;;;;;;;4989473;28;20371;-67
2021/07/05 09:10:01;;;;;;;17.50;13.40;;;;;;;;;;4989355;28;20180;-68
2021/07/05 09:12:27;;;;;;;16.95;13.50;;;;;;;;;;4989258;28;20487;-66
2021/07/05 09:15:13;;;;;;;19.58;14.48;;;;;;;;;;4996835;28;20029;-66
2021/07/05 09:17:41;;;;;;;19.58;15.18;;;;;;;;;;4997201;28;20043;-66
2021/07/05 09:20:13;;;;;;;20.05;14.57;;;;;;;;;;4995824;28;20022;-66
2021/07/05 09:22:59;;;;;;;19.73;14.05;;;;;;;;;;4998245;28;20382;-66
2021/07/05 09:25:35;;;;;;;20.15;14.25;;;;;;;;;;4999298;28;20462;-66
2021/07/05 09:28:03;;;;;;;19.80;14.40;;;;;;;;;;4999448;28;20422;-65
2021/07/05 09:30:37;;;;;;;21.00;15.15;;;;;;;;;;4998860;28;20085;-66
2021/07/05 09:33:18;;;;;;;19.33;15.77;;;;;;;;;;4997610;28;20030;-65
2021/07/05 09:35:44;;;;;;;19.48;14.75;;;;;;;;;;4991545;28;20022;-66
2021/07/05 09:38:10;;;;;;;18.83;14.73;;;;;;;;;;4971797;28;20038;-65
2021/07/05 09:40:36;;;;;;;21.42;14.80;;;;;;;;;;4999384;28;20483;-66
2021/07/05 09:43:20;;;;;;;22.00;14.80;;;;;;;;;;5007707;28;20632;-65
2021/07/05 09:45:46;;;;;;;20.23;15.10;;;;;;;;;;5007886;28;20029;-65
2021/07/05 09:48:16;;;;;;;19.02;14.70;;;;;;;;;;4979921;28;20062;-64
2021/07/05 09:50:42;;;;;;;20.30;14.30;;;;;;;;;;4969960;28;20022;-63
2021/07/05 09:53:27;;;;;;;21.85;15.35;;;;;;;;;;4971555;28;20034;-62
2021/07/05 09:55:53;;;;;;;20.83;14.75;;;;;;;;;;4958849;28;20035;-65
2021/07/05 09:58:32;;;;;;;20.52;14.60;;;;;;;;;;4969596;28;20065;-65
2021/07/05 10:00:58;;;;;;;20.75;13.68;;;;;;;;;;4964905;28;20027;-65
2021/07/05 10:03:39;;;;;;;20.73;14.98;;;;;;;;;;4979641;28;20085;-64
2021/07/05 10:06:15;;;;;;;21.63;15.07;;;;;;;;;;4986536;28;20039;-64
2021/07/05 10:08:41;;;;;;;20.50;13.93;;;;;;;;;;4980906;28;20034;-64
2021/07/05 10:11:07;;;;;;;19.10;13.57;;;;;;;;;;4988760;28;20049;-65
2021/07/05 10:13:33;;;;;;;17.17;13.40;;;;;;;;;;4988470;28;20034;-65
2021/07/05 10:16:05;;;;;;;20.75;14.23;;;;;;;;;;4987558;28;20034;-65
2021/07/05 10:18:31;;;;;;;18.45;13.98;;;;;;;;;;4971177;28;20023;-64
2021/07/05 10:20:58;;;;;;;18.92;13.43;;;;;;;;;;4989108;28;20131;-61
2021/07/05 10:23:24;;;;;;;23.15;14.32;;;;;;;;;;4988413;28;20410;-62
2021/07/05 10:25:50;;;;;;;20.70;14.63;;;;;;;;;;4987793;28;20576;-64
2021/07/05 10:28:17;;;;;;;19.90;14.00;;;;;;;;;;4973147;28;20148;-65
2021/07/05 10:30:44;;;;;;;18.85;14.13;;;;;;;;;;4980632;28;20053;-64
2021/07/05 10:33:11;;;;;;;20.27;15.20;;;;;;;;;;4989197;28;20065;-64
2021/07/05 10:35:41;;;;;;;20.73;16.17;;;;;;;;;;4989335;28;20019;-64
2021/07/05 10:38:21;;;;;;;20.10;15.63;;;;;;;;;;4996569;28;20064;-64
2021/07/05 10:40:51;;;;;;;21.10;16.52;;;;;;;;;;4994392;28;20101;-64
2021/07/05 10:43:21;;;;;;;24.13;17.27;;;;;;;;;;4992518;28;20038;-64
2021/07/05 10:45:56;;;;;;;21.48;17.52;;;;;;;;;;4972689;28;20038;-63
2021/07/05 10:48:32;;;;;;;23.80;17.45;;;;;;;;;;5002850;28;20109;-64
2021/07/05 10:51:01;;;;;;;20.92;16.65;;;;;;;;;;5009816;28;20033;-65
2021/07/05 10:53:33;;;;;;;25.65;17.67;;;;;;;;;;5009791;28;20033;-66
2021/07/05 10:56:23;;;;;;;21.20;17.50;;;;;;;;;;5009048;28;20494;-65
2021/07/05 10:58:49;;;;;;;21.90;16.42;;;;;;;;;;4988475;28;20082;-65
2021/07/05 11:01:16;;;;;;;22.40;17.02;;;;;;;;;;4954660;28;20015;-65
2021/07/05 11:03:42;;;;;;;21.27;16.10;;;;;;;;;;4972617;28;20030;-64
2021/07/05 11:06:14;;;;;;;22.38;16.15;;;;;;;;;;4971458;28;20050;-65
2021/07/05 11:08:48;;;;;;;21.63;16.10;;;;;;;;;;4972278;28;20167;-64
2021/07/05 11:11:14;;;;;;;19.75;14.35;;;;;;;;;;4971124;28;20034;-64
2021/07/05 11:13:40;;;;;;;22.02;15.75;;;;;;;;;;4970276;28;20081;-64
2021/07/05 11:16:07;;;;;;;20.00;14.23;;;;;;;;;;4969651;28;20023;-64
2021/07/05 11:18:39;;;;;;;22.65;15.27;;;;;;;;;;4972994;28;20059;-65
2021/07/05 11:21:09;;;;;;;20.70;14.45;;;;;;;;;;4974275;28;20034;-64
2021/07/05 11:24:01;;;;;;;19.80;14.05;;;;;;;;;;4974047;28;20031;-63
2021/07/05 11:26:30;;;;;;;20.95;14.57;;;;;;;;;;4974344;28;20030;-64
2021/07/05 11:29:17;;;;;;;19.48;14.20;;;;;;;;;;4975363;28;20502;-64
2021/07/05 11:31:50;;;;;;;18.88;14.15;;;;;;;;;;4971549;28;20050;-63
2021/07/05 11:34:29;;;;;;;19.02;13.70;;;;;;;;;;4956899;28;20391;-63
2021/07/05 11:37:18;;;;;;;19.25;13.20;;;;;;;;;;4975172;28;20018;-63
2021/07/05 11:39:46;;;;;;;21.17;14.13;;;;;;;;;;4971666;28;20043;-62
2021/07/05 11:42:12;;;;;;;20.60;13.45;;;;;;;;;;4975099;28;20023;-63
2021/07/05 11:44:51;;;;;;;22.02;13.93;;;;;;;;;;4974100;28;20507;-61
2021/07/05 11:47:36;;;;;;;18.95;13.38;;;;;;;;;;4974283;28;20033;-62
2021/07/05 11:50:17;;;;;;;19.88;14.00;;;;;;;;;;4967922;28;20339;-61
2021/07/05 11:52:46;;;;;;;19.83;13.88;;;;;;;;;;4998983;28;20027;-63
2021/07/05 11:55:13;;;;;;;18.83;13.25;;;;;;;;;;5000792;28;20022;-62
2021/07/05 11:57:49;;;;;;;19.92;13.75;;;;;;;;;;5002595;28;20155;-64
2021/07/05 12:00:16;;;;;;;21.45;14.38;;;;;;;;;;4985009;28;20105;-63
2021/07/05 12:02:42;;;;;;;20.63;13.15;;;;;;;;;;5003809;28;20037;-63
2021/07/05 12:05:10;;;;;;;20.20;14.02;;;;;;;;;;5003441;28;20029;-63
2021/07/05 12:07:36;;;;;;;22.67;14.32;;;;;;;;;;4999149;28;20050;-63
2021/07/05 12:10:03;;;;;;;18.67;14.10;;;;;;;;;;5001811;28;20453;-62
2021/07/05 12:12:32;;;;;;;19.27;14.15;;;;;;;;;;4986006;28;20029;-63
2021/07/05 12:15:01;;;;;;;19.80;13.35;;;;;;;;;;4972095;28;20023;-62
2021/07/05 12:17:27;;;;;;;19.63;13.38;;;;;;;;;;4974082;28;20073;-63
2021/07/05 12:19:54;;;;;;;19.38;13.27;;;;;;;;;;4974392;28;20027;-63
2021/07/05 12:22:25;;;;;;;19.58;13.52;;;;;;;;;;4974351;28;20106;-62
2021/07/05 12:24:52;;;;;;;19.85;14.77;;;;;;;;;;4972283;28;20149;-62
2021/07/05 12:27:19;;;;;;;20.33;15.53;;;;;;;;;;4972573;28;20026;-62
2021/07/05 12:29:55;;;;;;;21.50;14.60;;;;;;;;;;4971905;28;20037;-63
2021/07/05 12:32:21;;;;;;;20.20;15.10;;;;;;;;;;4973938;28;20062;-62
2021/07/05 12:34:49;;;;;;;20.85;14.80;;;;;;;;;;4973511;28;20018;-62
2021/07/05 12:37:21;;;;;;;20.95;14.85;;;;;;;;;;4974277;28;20022;-62
2021/07/05 12:39:48;;;;;;;23.02;14.93;;;;;;;;;;4973918;28;20395;-63
2021/07/05 12:42:22;;;;;;;21.38;15.95;;;;;;;;;;4973900;28;20022;-62
2021/07/05 12:44:48;;;;;;;20.13;14.88;;;;;;;;;;4971630;28;20055;-62
2021/07/05 12:47:14;;;;;;;20.05;15.02;;;;;;;;;;4973678;28;20027;-62
2021/07/05 12:49:40;;;;;;;19.90;15.23;;;;;;;;;;4973894;28;20495;-62
2021/07/05 12:52:08;;;;;;;17.83;14.85;;;;;;;;;;4973495;28;20027;-62
2021/07/05 12:54:38;;;;;;;20.27;15.18;;;;;;;;;;4972962;28;20110;-64
2021/07/05 12:57:11;;;;;;;19.73;15.40;;;;;;;;;;4973335;28;20103;-63
2021/07/05 12:59:39;;;;;;;21.67;15.02;;;;;;;;;;4987321;28;20015;-63
2021/07/05 13:02:06;;;;;;;18.47;14.47;;;;;;;;;;4993196;28;20026;-63
2021/07/05 13:04:32;;;;;;;18.48;14.88;;;;;;;;;;4974568;28;20120;-62
2021/07/05 13:07:09;;;;;;;21.02;14.80;;;;;;;;;;4975979;28;20395;-63
2021/07/05 13:09:37;;;;;;;21.90;15.82;;;;;;;;;;4976087;28;20447;-63
2021/07/05 13:12:06;;;;;;;20.17;14.55;;;;;;;;;;4993199;28;20018;-62
2021/07/05 13:14:38;;;;;;;18.25;15.00;;;;;;;;;;4975009;28;20042;-63
2021/07/05 13:17:17;;;;;;;20.95;15.38;;;;;;;;;;4993114;28;20026;-62
2021/07/05 13:19:44;;;;;;;19.73;15.57;;;;;;;;;;4993314;28;20114;-63
2021/07/05 13:22:13;;;;;;;19.00;14.75;;;;;;;;;;4975708;28;20026;-63
2021/07/05 13:24:44;;;;;;;19.92;15.13;;;;;;;;;;4975045;28;20023;-63
2021/07/05 13:27:20;;;;;;;21.13;15.45;;;;;;;;;;4973856;28;20030;-63
2021/07/05 13:29:46;;;;;;;18.38;14.88;;;;;;;;;;4975493;28;20026;-63
2021/07/05 13:32:14;;;;;;;18.50;14.63;;;;;;;;;;4992859;28;20022;-64
2021/07/05 13:34:41;;;;;;;21.42;15.38;;;;;;;;;;4992314;28;20515;-64
2021/07/05 13:37:09;;;;;;;19.88;15.80;;;;;;;;;;4975333;28;20030;-65
2021/07/05 13:39:36;;;;;;;19.20;15.20;;;;;;;;;;4974977;28;20025;-64
2021/07/05 13:42:13;;;;;;;19.52;15.60;;;;;;;;;;4992654;28;20027;-63
2021/07/05 13:44:40;;;;;;;20.50;14.93;;;;;;;;;;4973667;28;20019;-64
2021/07/05 13:47:23;;;;;;;17.77;14.60;;;;;;;;;;5006874;28;20101;-64
2021/07/05 13:50:07;;;;;;;19.25;14.63;;;;;;;;;;5011548;28;20394;-65
2021/07/05 13:52:36;;;;;;;18.48;14.98;;;;;;;;;;5004290;28;20034;-66
2021/07/05 13:55:21;;;;;;;20.95;15.73;;;;;;;;;;5001273;28;20028;-64
2021/07/05 13:57:48;;;;;;;19.02;15.18;;;;;;;;;;5028337;23;20061;-64
2021/07/05 14:00:14;;;;;;;18.77;15.40;;;;;;;;;;5011698;28;20033;-65
2021/07/05 14:02:41;;;;;;;17.73;15.27;;;;;;;;;;5010397;28;20113;-64
2021/07/05 14:05:22;;;;;;;19.30;16.45;;;;;;;;;;5011748;28;20489;-64
2021/07/05 14:07:48;;;;;;;21.50;16.63;;;;;;;;;;4315841;28;10000739;-65
2021/07/05 14:10:15;;;;;;;20.63;16.58;;;;;;;;;;5014594;28;20022;-64
2021/07/05 14:12:41;;;;;;;19.52;15.65;;;;;;;;;;5011168;28;20430;-64
2021/07/05 14:15:08;;;;;;;20.07;16.10;;;;;;;;;;4655123;28;10000149;-64
2021/07/05 14:17:35;;;;;;;20.58;17.40;;;;;;;;;;5006238;28;20121;-64
2021/07/05 14:20:01;;;;;;;18.73;16.73;;;;;;;;;;5006770;28;20037;-64
2021/07/05 14:22:27;;;;;;;18.30;16.40;;;;;;;;;;5007194;28;20443;-64